Fort McMurray Airport
CYMM : now visible

Airfield :











YOU CAN JOIN US ON...

 
LOGIN :

Register | Disclaimer

   EN    FR    IT 

 









Legend :    VFR   Marginal VFR   IFR   Intensive IFR   Very Intensive IFR
Visi :
Ceiling :
>= 8 km
>= 3000ft
5 to 8 km
1000 to 3000 ft
1500m to 5 km
500 to 1000 ft
800 to 1500m
200 to 500 ft
< 800m
< 200 ft
Symbols :   Thunderstorms  Fog  Heavy snow  Heavy precipitations  Wind > 20 kt






- Airport Elevation : 1211 ft
- IATA code : YMM


CYMM - Fort McMurray

CURRENT METAR :
  • 021800Z AUTO 36004KT 330V070 9SM FEW200 26/15 A3008 RMK SLP190 DENSITY ALT 2600FT

EXPIRED METARs :
  • 021700Z AUTO 03003KT 360V060 9SM BKN210 BKN240 24/16 A3009 RMK SLP194 DENSITY ALT 2400FT
  • 021600Z AUTO 07003KT 020V100 9SM FEW210 BKN230 23/14 A3010 RMK SLP195 DENSITY ALT 2300FT

TAF TAF CYMM
Valid from the 02 at 19:00 until the 03 at 07:00 UTC


021838Z 0219/0307 VRB03KT P6SM SCT200 RMK FCST BASED ON AUTO OBS. NXT FCST BY 030100Z
CZEG FIR / North America



MET'MAP, your aeronautical weather chart ! - Copyright ORBIFLY December 2007 - Disclaimer

ORBIFLY MET'MAP TEAM :

Programming & Development : Alexandra Zaïnal
Concept & original design : Baudouin d'Aumeries
Assistance for programming : Marc-Olivier Méhu
Technical & hardware support : Manuel Goepfert

Contact : metmap@orbifly.com




SOURCES & CREDITS :

   NOAA       Earth
Advisory